Bala, United Kingdom
Current Conditions -  °F | °C
As of 8:50 AM on Saturday 29 Nov 2014 (Local Time) from EGNR Reporting Station
Haze Haze  
Wind Chill: 50°   Ceiling: 1500
Heat Index: 50°   Visibility: 2.8mi
Dew Point: 48°   Wind: 7mph
Humidity: 94%   Direction: 150°SSE
Pressure: 29.83"   Gusts: NA
Location:  52.91°N, 3.6°W
Report Text: EGNR 290850Z 15006KT 4500 BR SCT010 BKN015 10/09 Q1010
Loading
Personal Weather Stations






























Interactive Weather Map New forecast layout! Learn more

10-Day Weather Forecast

Advertisements
Track Severe Weather on mobile